Time;durP1;ratioP1;P1;durP2;ratioP2;P2;SDS_P1;SDS_P2;PMS_P1;PMS_P2;Temp;Humidity;BMP_temperature;BMP_pressure;BME280_temperature;BME280_humidity;BME280_pressure;Samples;Min_cycle;Max_cycle;Signal;HPM_P1;HPM_P2
2022/03/10 04:14:27;;;;;;;16.63;10.43;;;;;;;;;;5086296;22;20910;-78
2022/03/10 04:16:54;;;;;;;19.30;11.07;;;;;;;;;;5040611;28;20242;-78
2022/03/10 04:19:21;;;;;;;22.13;11.93;;;;;;;;;;5037404;28;20214;-80
2022/03/10 04:21:48;;;;;;;20.33;12.77;;;;;;;;;;5037214;28;20712;-80
2022/03/10 04:24:15;;;;;;;20.17;11.53;;;;;;;;;;5024668;28;20227;-80
2022/03/10 04:26:42;;;;;;;18.00;11.80;;;;;;;;;;5017546;28;20242;-80
2022/03/10 04:29:09;;;;;;;16.03;11.00;;;;;;;;;;5017949;28;20203;-80
2022/03/10 04:31:37;;;;;;;20.67;11.17;;;;;;;;;;5013393;28;20238;-80
2022/03/10 04:34:04;;;;;;;16.20;11.43;;;;;;;;;;5013400;28;20246;-80
2022/03/10 04:36:32;;;;;;;17.70;11.80;;;;;;;;;;5012784;28;20809;-80
2022/03/10 04:38:59;;;;;;;18.83;12.20;;;;;;;;;;5013495;28;20242;-80
2022/03/10 04:41:26;;;;;;;16.03;11.27;;;;;;;;;;5013170;28;20235;-80
2022/03/10 04:43:53;;;;;;;18.33;11.33;;;;;;;;;;5013140;28;20227;-80
2022/03/10 04:46:20;;;;;;;19.27;11.50;;;;;;;;;;5012714;28;20235;-80
2022/03/10 04:48:48;;;;;;;25.13;12.33;;;;;;;;;;5013241;28;20210;-80
2022/03/10 04:51:15;;;;;;;16.73;10.90;;;;;;;;;;5012851;28;20235;-80
2022/03/10 04:53:42;;;;;;;20.07;11.97;;;;;;;;;;5013014;28;20257;-80
2022/03/10 04:56:09;;;;;;;19.67;12.00;;;;;;;;;;5012864;28;20245;-80
2022/03/10 04:58:36;;;;;;;18.27;10.53;;;;;;;;;;5013353;28;20217;-81
2022/03/10 05:01:04;;;;;;;16.87;10.93;;;;;;;;;;5012651;28;20714;-80
2022/03/10 05:03:33;;;;;;;20.40;11.80;;;;;;;;;;5013286;28;20223;-80
2022/03/10 05:06:02;;;;;;;18.43;12.37;;;;;;;;;;5012704;28;20241;-78
2022/03/10 05:08:29;;;;;;;21.40;12.07;;;;;;;;;;5012437;28;20635;-79
2022/03/10 05:10:56;;;;;;;16.70;11.27;;;;;;;;;;5012580;28;20233;-80
2022/03/10 05:13:23;;;;;;;25.43;12.07;;;;;;;;;;5012797;28;20237;-80
2022/03/10 05:15:50;;;;;;;17.77;11.60;;;;;;;;;;5012446;28;20235;-80
2022/03/10 05:18:17;;;;;;;20.30;11.63;;;;;;;;;;5012975;28;20203;-80
2022/03/10 05:20:45;;;;;;;16.90;11.97;;;;;;;;;;5012678;28;20242;-80
2022/03/10 05:23:13;;;;;;;20.57;11.90;;;;;;;;;;5012689;28;20289;-80
2022/03/10 05:25:42;;;;;;;20.10;12.87;;;;;;;;;;5012738;28;20238;-80
2022/03/10 05:28:13;;;;;;;22.13;13.87;;;;;;;;;;5013359;28;20226;-80
2022/03/10 05:30:40;;;;;;;24.30;11.43;;;;;;;;;;5013385;28;20234;-81
2022/03/10 05:33:07;;;;;;;24.30;12.63;;;;;;;;;;5014828;28;20235;-81
2022/03/10 05:35:35;;;;;;;16.80;11.57;;;;;;;;;;5016257;28;20244;-83
2022/03/10 05:38:02;;;;;;;21.27;12.27;;;;;;;;;;5016202;28;20222;-82
2022/03/10 05:40:31;;;;;;;25.07;12.87;;;;;;;;;;5015671;28;20932;-83
2022/03/10 05:42:58;;;;;;;20.30;12.33;;;;;;;;;;5016695;28;20218;-84
2022/03/10 05:45:25;;;;;;;20.83;12.27;;;;;;;;;;5016981;28;20223;-84
2022/03/10 05:47:54;;;;;;;19.40;12.50;;;;;;;;;;5017199;28;20210;-83
2022/03/10 05:50:25;;;;;;;21.43;11.70;;;;;;;;;;5017758;28;20728;-83
2022/03/10 05:52:52;;;;;;;20.27;11.23;;;;;;;;;;5014563;28;20238;-84
2022/03/10 05:55:20;;;;;;;16.67;11.77;;;;;;;;;;5017024;28;20741;-83
2022/03/10 05:57:48;;;;;;;20.43;12.87;;;;;;;;;;5022195;28;20211;-83
2022/03/10 06:00:16;;;;;;;20.43;12.87;;;;;;;;;;5019410;28;20703;-83
2022/03/10 06:02:43;;;;;;;28.13;12.67;;;;;;;;;;5010541;28;20211;-82
2022/03/10 06:05:10;;;;;;;28.70;12.13;;;;;;;;;;5001276;28;20232;-85
2022/03/10 06:07:38;;;;;;;23.90;12.63;;;;;;;;;;5001414;28;20181;-83
2022/03/10 06:10:05;;;;;;;30.23;14.00;;;;;;;;;;4999523;28;20241;-84
2022/03/10 06:12:32;;;;;;;24.20;13.67;;;;;;;;;;4999320;28;20208;-82
2022/03/10 06:15:02;;;;;;;24.20;13.67;;;;;;;;;;4997738;28;20696;-82
2022/03/10 06:17:30;;;;;;;25.07;14.67;;;;;;;;;;5005970;28;20222;-83
2022/03/10 06:19:57;;;;;;;21.93;12.90;;;;;;;;;;4998210;28;20259;-84
2022/03/10 06:22:25;;;;;;;17.63;13.63;;;;;;;;;;4998919;28;20211;-84
2022/03/10 06:24:52;;;;;;;22.10;13.00;;;;;;;;;;5000850;28;20252;-84
2022/03/10 06:27:22;;;;;;;21.07;14.13;;;;;;;;;;5000328;28;20211;-83
2022/03/10 06:29:49;;;;;;;25.77;15.07;;;;;;;;;;4999425;28;20210;-83
2022/03/10 06:32:18;;;;;;;25.23;13.20;;;;;;;;;;4998347;28;20219;-83
2022/03/10 06:34:46;;;;;;;27.27;16.03;;;;;;;;;;4997915;28;20241;-84
2022/03/10 06:37:13;;;;;;;24.27;15.17;;;;;;;;;;4997623;28;20676;-83
2022/03/10 06:39:40;;;;;;;28.50;15.90;;;;;;;;;;4998605;28;20233;-84
2022/03/10 06:42:08;;;;;;;21.77;14.40;;;;;;;;;;4998225;28;20572;-84
2022/03/10 06:44:36;;;;;;;28.77;15.10;;;;;;;;;;4997780;28;20231;-84
2022/03/10 06:47:04;;;;;;;25.20;15.93;;;;;;;;;;4998316;28;20216;-84
2022/03/10 06:49:32;;;;;;;26.73;15.23;;;;;;;;;;4997866;28;20210;-83
2022/03/10 06:52:00;;;;;;;21.47;15.07;;;;;;;;;;4997418;28;20232;-83
2022/03/10 06:54:27;;;;;;;29.53;16.47;;;;;;;;;;4997429;28;20242;-83
2022/03/10 06:56:54;;;;;;;26.00;14.60;;;;;;;;;;4997284;28;20259;-82
2022/03/10 06:59:21;;;;;;;24.50;15.20;;;;;;;;;;4995876;28;20210;-81
2022/03/10 07:01:48;;;;;;;23.50;16.03;;;;;;;;;;4995391;28;20235;-81
2022/03/10 07:04:15;;;;;;;25.50;16.50;;;;;;;;;;4995705;28;20231;-81
2022/03/10 07:06:43;;;;;;;25.67;15.67;;;;;;;;;;4994774;28;20246;-81
2022/03/10 07:09:10;;;;;;;23.00;13.27;;;;;;;;;;4995535;28;20214;-81
2022/03/10 07:11:38;;;;;;;27.47;15.30;;;;;;;;;;4996705;28;20259;-81
2022/03/10 07:14:05;;;;;;;25.57;14.43;;;;;;;;;;4997165;28;20234;-81
2022/03/10 07:16:32;;;;;;;23.97;15.03;;;;;;;;;;4996335;28;20318;-80
2022/03/10 07:18:59;;;;;;;25.07;15.10;;;;;;;;;;4997791;28;20208;-81
2022/03/10 07:21:27;;;;;;;24.93;14.30;;;;;;;;;;5003644;28;20227;-80
2022/03/10 07:23:55;;;;;;;27.67;14.97;;;;;;;;;;5017511;28;20223;-80
2022/03/10 07:26:22;;;;;;;23.30;13.87;;;;;;;;;;5016261;28;20306;-80
2022/03/10 07:28:49;;;;;;;22.47;14.57;;;;;;;;;;5035984;28;20302;-81
2022/03/10 07:31:16;;;;;;;27.37;15.90;;;;;;;;;;5034022;28;20305;-82
2022/03/10 07:33:45;;;;;;;23.13;15.00;;;;;;;;;;5030803;28;20226;-81
2022/03/10 07:36:12;;;;;;;24.03;14.93;;;;;;;;;;5026066;28;20231;-81
2022/03/10 07:38:39;;;;;;;20.80;14.13;;;;;;;;;;5019197;28;20687;-80
2022/03/10 07:41:08;;;;;;;19.97;12.93;;;;;;;;;;5036334;28;20234;-81
2022/03/10 07:43:41;;;;;;;26.47;14.80;;;;;;;;;;5037430;28;20322;-80
2022/03/10 07:46:08;;;;;;;19.13;12.97;;;;;;;;;;5036954;28;20242;-81
2022/03/10 07:48:35;;;;;;;27.37;14.80;;;;;;;;;;5041042;28;20206;-81
2022/03/10 07:51:02;;;;;;;21.03;12.83;;;;;;;;;;5034659;28;20239;-81
2022/03/10 07:53:29;;;;;;;25.77;14.07;;;;;;;;;;5035501;28;20238;-81
2022/03/10 07:55:56;;;;;;;23.87;14.43;;;;;;;;;;5026954;28;20246;-80
2022/03/10 07:58:25;;;;;;;21.33;14.73;;;;;;;;;;5015805;28;20204;-80
2022/03/10 08:00:54;;;;;;;21.70;13.93;;;;;;;;;;5011410;28;20740;-81
2022/03/10 08:03:22;;;;;;;28.27;14.60;;;;;;;;;;5016155;28;20217;-82
2022/03/10 08:05:49;;;;;;;24.83;13.87;;;;;;;;;;4996776;28;20676;-81
2022/03/10 08:08:16;;;;;;;26.50;14.93;;;;;;;;;;4998085;28;20672;-83
2022/03/10 08:10:43;;;;;;;19.37;13.30;;;;;;;;;;4997330;28;20246;-81
2022/03/10 08:13:10;;;;;;;21.27;14.93;;;;;;;;;;4998410;28;20233;-83
2022/03/10 08:15:40;;;;;;;29.00;14.67;;;;;;;;;;5010133;28;20605;-82
2022/03/10 08:18:10;;;;;;;24.00;15.03;;;;;;;;;;5038296;28;20207;-83
2022/03/10 08:20:39;;;;;;;22.33;14.07;;;;;;;;;;5036261;28;20242;-81
2022/03/10 08:23:12;;;;;;;18.57;14.00;;;;;;;;;;5037460;28;20292;-82
2022/03/10 08:25:39;;;;;;;20.13;12.90;;;;;;;;;;5037381;28;20259;-82
2022/03/10 08:28:07;;;;;;;21.17;13.07;;;;;;;;;;5036375;28;20205;-81
2022/03/10 08:30:34;;;;;;;16.67;11.47;;;;;;;;;;5036736;28;20635;-81
2022/03/10 08:33:02;;;;;;;17.37;12.10;;;;;;;;;;5036579;28;20703;-82
2022/03/10 08:35:31;;;;;;;14.83;10.10;;;;;;;;;;5038526;28;20264;-81
2022/03/10 08:37:58;;;;;;;16.13;10.67;;;;;;;;;;5039580;28;20182;-81
2022/03/10 08:40:25;;;;;;;17.93;11.40;;;;;;;;;;5037773;28;20628;-82
2022/03/10 08:42:52;;;;;;;16.90;10.40;;;;;;;;;;5040172;28;20198;-81
2022/03/10 08:45:20;;;;;;;18.33;10.37;;;;;;;;;;5040114;28;20230;-83
2022/03/10 08:47:47;;;;;;;16.53;9.77;;;;;;;;;;5016070;28;20210;-81
2022/03/10 08:50:16;;;;;;;16.57;9.70;;;;;;;;;;5021038;28;20234;-82
2022/03/10 08:52:43;;;;;;;10.93;8.70;;;;;;;;;;5021814;28;20217;-82
2022/03/10 08:55:11;;;;;;;13.33;9.17;;;;;;;;;;5021811;28;20243;-82
2022/03/10 08:57:39;;;;;;;12.57;9.27;;;;;;;;;;5020957;28;20207;-82
2022/03/10 09:00:07;;;;;;;15.07;8.97;;;;;;;;;;5022237;28;20233;-83
2022/03/10 09:02:34;;;;;;;13.30;9.23;;;;;;;;;;5020425;28;20202;-82
2022/03/10 09:05:01;;;;;;;15.50;8.80;;;;;;;;;;5020371;28;20585;-82
2022/03/10 09:07:29;;;;;;;13.17;9.07;;;;;;;;;;5020418;28;20688;-82
2022/03/10 09:09:56;;;;;;;16.00;9.37;;;;;;;;;;5020910;28;20234;-82
2022/03/10 09:12:23;;;;;;;15.57;9.30;;;;;;;;;;5019663;28;20207;-82
2022/03/10 09:14:50;;;;;;;14.43;8.87;;;;;;;;;;5019231;28;20242;-82
2022/03/10 09:17:17;;;;;;;15.23;9.50;;;;;;;;;;5021393;28;20202;-83
2022/03/10 09:19:44;;;;;;;14.67;9.77;;;;;;;;;;5020061;28;20218;-82
2022/03/10 09:22:12;;;;;;;12.23;8.43;;;;;;;;;;5019058;28;20276;-83
2022/03/10 09:24:41;;;;;;;11.73;8.63;;;;;;;;;;5019565;28;20227;-82
2022/03/10 09:27:09;;;;;;;13.83;9.20;;;;;;;;;;5019410;28;20212;-82
2022/03/10 09:29:36;;;;;;;12.20;8.73;;;;;;;;;;5020091;28;20207;-82
2022/03/10 09:32:03;;;;;;;11.90;8.57;;;;;;;;;;5022543;28;20240;-82
2022/03/10 09:34:30;;;;;;;12.00;7.63;;;;;;;;;;5024148;28;20233;-82
2022/03/10 09:36:57;;;;;;;9.70;7.00;;;;;;;;;;5023933;28;20244;-83
2022/03/10 09:39:24;;;;;;;10.17;7.47;;;;;;;;;;5006537;28;20542;-82
2022/03/10 09:41:54;;;;;;;10.53;7.33;;;;;;;;;;5005420;28;20239;-82
2022/03/10 09:44:21;;;;;;;9.70;7.53;;;;;;;;;;5005637;28;20237;-82
2022/03/10 09:46:50;;;;;;;10.20;6.77;;;;;;;;;;5003827;28;20242;-82
2022/03/10 09:49:21;;;;;;;11.63;6.93;;;;;;;;;;5004463;28;20214;-83
2022/03/10 09:51:49;;;;;;;9.10;6.50;;;;;;;;;;5003662;28;20235;-82
2022/03/10 09:54:16;;;;;;;10.07;6.87;;;;;;;;;;5010942;28;20235;-82
2022/03/10 09:56:44;;;;;;;10.07;6.53;;;;;;;;;;5024597;28;20238;-82
2022/03/10 09:59:13;;;;;;;9.10;6.70;;;;;;;;;;5026038;28;20207;-82
2022/03/10 10:01:40;;;;;;;7.77;6.33;;;;;;;;;;5024551;28;20227;-82
2022/03/10 10:04:07;;;;;;;7.40;6.60;;;;;;;;;;5023917;28;20223;-82
2022/03/10 10:06:56;;;;;;;9.37;7.03;;;;;;;;;;5022090;28;20232;-82
2022/03/10 10:09:23;;;;;;;10.50;7.50;;;;;;;;;;5019370;28;20207;-82
2022/03/10 10:11:50;;;;;;;9.80;6.57;;;;;;;;;;5026062;28;20246;-82
2022/03/10 10:14:32;;;;;;;11.07;7.27;;;;;;;;;;5052482;23;20221;-86
2022/03/10 10:17:00;;;;;;;8.40;6.80;;;;;;;;;;5047818;28;20225;-86
2022/03/10 10:19:27;;;;;;;8.53;6.37;;;;;;;;;;5058002;28;20237;-89
2022/03/10 10:22:09;;;;;;;8.73;6.70;;;;;;;;;;5060293;28;20229;-88
2022/03/10 10:24:37;;;;;;;10.93;6.77;;;;;;;;;;5057210;28;20241;-86
2022/03/10 10:27:15;;;;;;;12.97;7.43;;;;;;;;;;5059803;28;20271;-85
2022/03/10 10:29:46;;;;;;;8.10;6.27;;;;;;;;;;5058728;28;20228;-87
2022/03/10 10:32:15;;;;;;;8.77;6.53;;;;;;;;;;5061072;28;20264;-87
2022/03/10 10:34:42;;;;;;;7.43;6.23;;;;;;;;;;5055656;28;20238;-87
2022/03/10 10:37:09;;;;;;;8.53;6.50;;;;;;;;;;5060207;28;20198;-87
2022/03/10 10:39:51;;;;;;;8.47;6.57;;;;;;;;;;5056799;28;20206;-88
2022/03/10 10:42:18;;;;;;;8.17;6.60;;;;;;;;;;5055543;28;20198;-87
2022/03/10 10:44:45;;;;;;;10.07;6.80;;;;;;;;;;5054866;28;20226;-86
2022/03/10 10:47:12;;;;;;;8.43;6.30;;;;;;;;;;5055649;28;20704;-87
2022/03/10 10:49:41;;;;;;;10.97;6.57;;;;;;;;;;5054620;28;20659;-87
2022/03/10 10:52:11;;;;;;;10.23;6.70;;;;;;;;;;5054916;28;20206;-88
2022/03/10 10:54:39;;;;;;;7.57;5.53;;;;;;;;;;5054442;28;20226;-88
2022/03/10 10:57:06;;;;;;;10.93;6.10;;;;;;;;;;5054850;28;20220;-87
2022/03/10 10:59:34;;;;;;;7.27;5.90;;;;;;;;;;5054350;28;20508;-87
2022/03/10 11:02:05;;;;;;;6.73;5.80;;;;;;;;;;5056028;28;20206;-86
2022/03/10 11:04:33;;;;;;;6.60;5.57;;;;;;;;;;5056361;28;20229;-86
2022/03/10 11:07:02;;;;;;;7.40;5.93;;;;;;;;;;5055218;28;20673;-85
2022/03/10 11:09:32;;;;;;;6.87;5.93;;;;;;;;;;5054606;28;20220;-86
2022/03/10 11:11:59;;;;;;;7.60;6.43;;;;;;;;;;5054282;28;20222;-86
2022/03/10 11:14:26;;;;;;;8.07;5.87;;;;;;;;;;5061800;28;20237;-85
2022/03/10 11:16:53;;;;;;;8.67;6.10;;;;;;;;;;5053328;28;20321;-86
2022/03/10 11:19:25;;;;;;;10.83;5.60;;;;;;;;;;5053689;28;20198;-86
2022/03/10 11:22:04;;;;;;;8.97;5.60;;;;;;;;;;5046650;28;20317;-84
2022/03/10 11:24:41;;;;;;;8.70;5.70;;;;;;;;;;5031811;28;20234;-85
2022/03/10 11:27:10;;;;;;;7.20;5.70;;;;;;;;;;5014732;28;20187;-86
2022/03/10 11:29:38;;;;;;;6.50;5.63;;;;;;;;;;5014649;28;20694;-86
2022/03/10 11:32:06;;;;;;;8.13;5.77;;;;;;;;;;5017728;28;20215;-86
2022/03/10 11:34:58;;;;;;;8.07;5.27;;;;;;;;;;5015429;28;20227;-86
2022/03/10 11:37:46;;;;;;;7.57;4.97;;;;;;;;;;4999923;28;20219;-87
2022/03/10 11:40:18;;;;;;;8.47;5.70;;;;;;;;;;5026322;28;20230;-86
2022/03/10 11:42:45;;;;;;;8.57;4.82;;;;;;;;;;5033677;28;20207;-86
2022/03/10 11:45:13;;;;;;;9.65;4.85;;;;;;;;;;5033108;28;20238;-87
2022/03/10 11:47:41;;;;;;;4.18;3.78;;;;;;;;;;5034117;28;20596;-85
2022/03/10 11:50:27;;;;;;;6.05;4.00;;;;;;;;;;5034374;28;20236;-85
2022/03/10 11:52:58;;;;;;;4.90;4.10;;;;;;;;;;5033187;28;20647;-86
2022/03/10 11:55:39;;;;;;;5.07;4.13;;;;;;;;;;5032800;28;20239;-86
2022/03/10 11:58:07;;;;;;;4.95;4.13;;;;;;;;;;5033560;28;20221;-86
2022/03/10 12:00:50;;;;;;;6.97;4.80;;;;;;;;;;5034426;28;20237;-87
2022/03/10 12:03:23;;;;;;;5.68;4.38;;;;;;;;;;5033347;28;20641;-86
2022/03/10 12:05:55;;;;;;;5.28;3.97;;;;;;;;;;5032906;28;20226;-87
2022/03/10 12:08:22;;;;;;;7.97;4.70;;;;;;;;;;5033424;28;20217;-86
2022/03/10 12:10:51;;;;;;;6.80;3.97;;;;;;;;;;5032826;28;20669;-87
2022/03/10 12:13:22;;;;;;;5.40;4.20;;;;;;;;;;5033202;28;20262;-87
2022/03/10 12:15:50;;;;;;;4.65;4.20;;;;;;;;;;5032608;28;20238;-87
2022/03/10 12:18:27;;;;;;;5.47;4.22;;;;;;;;;;5033117;28;20210;-87
2022/03/10 12:20:55;;;;;;;6.85;3.75;;;;;;;;;;5032599;28;20237;-87
2022/03/10 12:23:23;;;;;;;6.03;3.97;;;;;;;;;;5033518;28;20222;-86
2022/03/10 12:25:53;;;;;;;5.60;4.50;;;;;;;;;;5032757;28;20234;-87
2022/03/10 12:28:22;;;;;;;5.80;3.60;;;;;;;;;;5039137;28;20260;-87
2022/03/10 12:30:50;;;;;;;5.63;3.70;;;;;;;;;;5033112;28;20241;-87
2022/03/10 12:33:17;;;;;;;6.05;3.78;;;;;;;;;;5033496;28;20293;-87
2022/03/10 12:35:44;;;;;;;6.05;4.22;;;;;;;;;;5033388;28;20733;-87
2022/03/10 12:38:13;;;;;;;4.55;4.15;;;;;;;;;;5033801;28;20218;-87
2022/03/10 12:40:41;;;;;;;5.40;4.53;;;;;;;;;;5032879;28;20280;-87
2022/03/10 12:43:15;;;;;;;5.80;3.95;;;;;;;;;;5033438;28;20214;-87
2022/03/10 12:45:47;;;;;;;4.85;4.18;;;;;;;;;;5032555;28;20261;-87
2022/03/10 12:48:31;;;;;;;5.10;4.03;;;;;;;;;;5033165;28;20289;-86
2022/03/10 12:50:58;;;;;;;5.30;3.95;;;;;;;;;;5024415;28;20245;-87
2022/03/10 12:53:38;;;;;;;5.57;3.85;;;;;;;;;;5039198;28;20230;-87
2022/03/10 12:56:06;;;;;;;5.00;3.47;;;;;;;;;;5036587;28;20234;-87
2022/03/10 12:58:34;;;;;;;4.35;3.80;;;;;;;;;;5035805;28;20198;-87
2022/03/10 13:01:05;;;;;;;4.93;3.55;;;;;;;;;;5038087;28;20241;-87
2022/03/10 13:03:35;;;;;;;5.13;4.10;;;;;;;;;;5048699;28;20238;-86
2022/03/10 13:06:02;;;;;;;4.10;3.70;;;;;;;;;;5055293;28;20250;-88
2022/03/10 13:08:30;;;;;;;5.30;4.25;;;;;;;;;;5055767;28;20198;-88
2022/03/10 13:11:00;;;;;;;7.38;4.10;;;;;;;;;;5056697;28;20233;-87
2022/03/10 13:13:30;;;;;;;4.55;3.50;;;;;;;;;;5053125;28;20226;-82
2022/03/10 13:16:02;;;;;;;6.13;4.35;;;;;;;;;;5052490;28;20234;-83
2022/03/10 13:18:29;;;;;;;3.42;2.97;;;;;;;;;;5052424;28;20207;-82
2022/03/10 13:20:59;;;;;;;6.97;4.03;;;;;;;;;;5039028;28;20243;-83
2022/03/10 13:23:28;;;;;;;5.10;3.70;;;;;;;;;;5032125;28;20227;-83
2022/03/10 13:25:55;;;;;;;4.72;4.22;;;;;;;;;;5031331;28;20235;-84
2022/03/10 13:28:25;;;;;;;7.00;4.72;;;;;;;;;;5031584;28;20211;-81
2022/03/10 13:30:52;;;;;;;5.47;4.70;;;;;;;;;;5031349;28;20235;-82
2022/03/10 13:33:20;;;;;;;4.75;4.28;;;;;;;;;;5028863;28;20208;-81
2022/03/10 13:35:49;;;;;;;6.57;4.53;;;;;;;;;;5026954;28;20299;-81
2022/03/10 13:38:18;;;;;;;7.22;5.53;;;;;;;;;;5028198;28;20203;-83
2022/03/10 13:40:45;;;;;;;8.25;5.88;;;;;;;;;;5026647;28;20235;-81
2022/03/10 13:43:21;;;;;;;5.78;5.07;;;;;;;;;;5044083;28;20203;-83
2022/03/10 13:45:48;;;;;;;6.05;4.90;;;;;;;;;;5047767;28;20238;-80
2022/03/10 13:48:19;;;;;;;11.10;5.72;;;;;;;;;;5048569;28;20229;-83
2022/03/10 13:50:48;;;;;;;7.50;5.15;;;;;;;;;;5048076;28;20234;-81
2022/03/10 13:53:15;;;;;;;6.30;5.05;;;;;;;;;;5048919;28;20271;-82
2022/03/10 13:55:48;;;;;;;7.18;4.97;;;;;;;;;;5048422;28;20234;-81
2022/03/10 13:58:15;;;;;;;11.25;5.93;;;;;;;;;;5047415;28;20207;-83
2022/03/10 14:00:45;;;;;;;8.20;5.95;;;;;;;;;;5035450;28;20857;-81
2022/03/10 14:03:13;;;;;;;7.45;5.72;;;;;;;;;;5019669;28;20211;-79
2022/03/10 14:05:41;;;;;;;6.28;5.68;;;;;;;;;;5017998;28;20253;-80
2022/03/10 14:08:14;;;;;;;7.85;5.43;;;;;;;;;;5019241;28;20215;-80
2022/03/10 14:10:41;;;;;;;6.47;5.65;;;;;;;;;;5021548;28;20238;-79
2022/03/10 14:13:09;;;;;;;6.25;5.65;;;;;;;;;;5038991;28;20213;-81
2022/03/10 14:15:36;;;;;;;6.82;5.38;;;;;;;;;;5040763;28;20230;-80
2022/03/10 14:18:08;;;;;;;9.25;5.78;;;;;;;;;;5041735;28;20644;-83
2022/03/10 14:20:42;;;;;;;7.50;5.43;;;;;;;;;;5037972;28;20648;-80
2022/03/10 14:23:09;;;;;;;7.03;5.55;;;;;;;;;;5041175;28;20218;-80
2022/03/10 14:25:43;;;;;;;8.20;5.63;;;;;;;;;;5044246;28;20222;-83
2022/03/10 14:28:10;;;;;;;7.00;5.10;;;;;;;;;;5041859;28;20223;-81
2022/03/10 14:30:38;;;;;;;8.93;5.30;;;;;;;;;;5039275;28;20277;-80
2022/03/10 14:33:05;;;;;;;7.38;5.63;;;;;;;;;;5042082;28;20245;-81
2022/03/10 14:35:32;;;;;;;6.40;5.15;;;;;;;;;;5036269;28;20223;-84
2022/03/10 14:37:59;;;;;;;6.72;5.28;;;;;;;;;;5037083;28;20207;-80
2022/03/10 14:40:26;;;;;;;6.55;5.22;;;;;;;;;;5040574;28;20234;-80
2022/03/10 14:42:54;;;;;;;7.07;4.90;;;;;;;;;;5038797;28;20206;-80
2022/03/10 14:45:22;;;;;;;6.65;4.80;;;;;;;;;;5031253;28;20227;-81
2022/03/10 14:47:49;;;;;;;6.90;5.43;;;;;;;;;;5020373;28;20238;-80
2022/03/10 14:50:16;;;;;;;6.07;5.03;;;;;;;;;;5019017;28;20228;-79
2022/03/10 14:52:43;;;;;;;9.05;5.47;;;;;;;;;;5019626;28;20215;-84
2022/03/10 14:55:11;;;;;;;11.35;5.45;;;;;;;;;;5038253;28;20242;-80
2022/03/10 14:57:38;;;;;;;8.02;5.32;;;;;;;;;;5038190;28;20230;-80
2022/03/10 15:00:09;;;;;;;6.10;4.70;;;;;;;;;;5037525;28;20234;-80
2022/03/10 15:02:38;;;;;;;5.85;5.25;;;;;;;;;;5041166;28;20290;-82
2022/03/10 15:05:05;;;;;;;8.30;5.40;;;;;;;;;;5039391;28;20726;-81
2022/03/10 15:07:32;;;;;;;11.68;5.80;;;;;;;;;;5039758;28;20738;-81
2022/03/10 15:09:59;;;;;;;7.72;5.72;;;;;;;;;;5040301;28;20232;-81
2022/03/10 15:12:27;;;;;;;10.77;5.78;;;;;;;;;;5038192;28;20211;-82
2022/03/10 15:14:54;;;;;;;8.27;5.28;;;;;;;;;;5036014;28;20238;-84
2022/03/10 15:17:22;;;;;;;7.53;5.82;;;;;;;;;;5034179;28;20203;-83
2022/03/10 15:19:49;;;;;;;7.82;5.40;;;;;;;;;;5034198;28;20261;-84
2022/03/10 15:22:29;;;;;;;7.07;5.47;;;;;;;;;;5037345;28;20218;-89
2022/03/10 15:24:56;;;;;;;7.65;5.20;;;;;;;;;;5034938;28;20664;-84
2022/03/10 15:27:24;;;;;;;9.77;5.45;;;;;;;;;;5035147;28;20231;-88
2022/03/10 15:29:51;;;;;;;8.93;5.43;;;;;;;;;;5033886;28;21631;-89
2022/03/10 15:32:19;;;;;;;6.80;5.30;;;;;;;;;;5035316;28;20214;-89
2022/03/10 15:34:47;;;;;;;6.50;5.07;;;;;;;;;;5025528;28;20227;-90
2022/03/10 15:37:14;;;;;;;7.78;5.53;;;;;;;;;;5017169;28;20209;-88
2022/03/10 15:39:42;;;;;;;6.05;4.93;;;;;;;;;;5015496;28;20266;-88
2022/03/10 15:42:09;;;;;;;6.28;4.80;;;;;;;;;;5015168;28;20266;-90
2022/03/10 15:44:36;;;;;;;9.60;5.20;;;;;;;;;;5014724;28;20258;-89
2022/03/10 15:47:03;;;;;;;7.55;5.10;;;;;;;;;;5019315;28;20226;-89
2022/03/10 15:49:33;;;;;;;9.98;5.30;;;;;;;;;;5019577;28;20294;-89
2022/03/10 15:52:01;;;;;;;6.95;5.30;;;;;;;;;;5015277;28;20273;-87
2022/03/10 15:54:29;;;;;;;10.23;5.03;;;;;;;;;;5016222;28;20250;-89
2022/03/10 15:56:57;;;;;;;9.45;5.25;;;;;;;;;;5017155;28;20223;-89
2022/03/10 15:59:25;;;;;;;5.65;5.05;;;;;;;;;;5015830;28;20281;-89
2022/03/10 16:01:52;;;;;;;11.73;5.40;;;;;;;;;;5015649;28;20238;-87
2022/03/10 16:04:19;;;;;;;5.72;4.40;;;;;;;;;;5014673;28;20242;-88
2022/03/10 16:06:46;;;;;;;6.45;4.57;;;;;;;;;;5017429;28;20238;-87
2022/03/10 16:09:15;;;;;;;4.63;4.22;;;;;;;;;;5038592;28;20199;-84
2022/03/10 16:11:42;;;;;;;6.72;4.63;;;;;;;;;;5014124;28;20583;-88
2022/03/10 16:14:09;;;;;;;9.85;5.70;;;;;;;;;;5014300;28;20628;-88
2022/03/10 16:16:36;;;;;;;5.13;4.30;;;;;;;;;;5013743;28;20234;-88
2022/03/10 16:19:04;;;;;;;4.88;4.10;;;;;;;;;;5016767;28;20203;-88
2022/03/10 16:21:32;;;;;;;6.55;4.10;;;;;;;;;;5015815;28;20231;-89
2022/03/10 16:23:59;;;;;;;5.68;4.22;;;;;;;;;;5014915;28;20321;-88
2022/03/10 16:26:27;;;;;;;8.32;4.43;;;;;;;;;;5013973;28;20235;-88
2022/03/10 16:28:54;;;;;;;4.35;3.80;;;;;;;;;;5014679;28;20596;-89
2022/03/10 16:31:21;;;;;;;5.57;4.35;;;;;;;;;;5014386;28;20243;-87
2022/03/10 16:33:48;;;;;;;7.35;4.05;;;;;;;;;;5018266;28;20226;-86
2022/03/10 16:36:19;;;;;;;5.07;4.57;;;;;;;;;;5013505;28;20238;-86
2022/03/10 16:38:46;;;;;;;4.63;4.13;;;;;;;;;;5013552;28;20208;-85
2022/03/10 16:41:14;;;;;;;6.65;4.60;;;;;;;;;;5013697;28;20234;-86
2022/03/10 16:43:43;;;;;;;6.50;4.47;;;;;;;;;;5015277;28;20227;-83
2022/03/10 16:46:10;;;;;;;5.97;4.20;;;;;;;;;;5013030;28;20235;-87
2022/03/10 16:48:37;;;;;;;5.43;4.40;;;;;;;;;;5014376;28;20238;-88
2022/03/10 16:51:04;;;;;;;8.40;5.55;;;;;;;;;;5013991;28;20231;-87
2022/03/10 16:53:32;;;;;;;8.70;5.00;;;;;;;;;;5013975;28;20238;-87
2022/03/10 16:55:59;;;;;;;10.57;4.90;;;;;;;;;;5014520;28;20235;-88
2022/03/10 16:58:29;;;;;;;6.80;4.53;;;;;;;;;;5017558;28;20204;-88
2022/03/10 17:00:57;;;;;;;9.30;5.53;;;;;;;;;;5017412;28;20423;-88
2022/03/10 17:03:24;;;;;;;11.02;5.30;;;;;;;;;;5020837;28;20718;-89
2022/03/10 17:05:51;;;;;;;9.40;5.35;;;;;;;;;;5021550;28;20234;-88
2022/03/10 17:08:18;;;;;;;9.95;4.45;;;;;;;;;;5028461;28;20218;-88
2022/03/10 17:10:52;;;;;;;6.28;4.35;;;;;;;;;;5019592;28;20362;-88
2022/03/10 17:13:19;;;;;;;6.50;4.75;;;;;;;;;;5012950;28;20198;-88
2022/03/10 17:15:47;;;;;;;8.88;4.93;;;;;;;;;;5012623;28;20235;-87
2022/03/10 17:18:15;;;;;;;6.28;4.97;;;;;;;;;;5013759;28;20207;-88
2022/03/10 17:20:42;;;;;;;7.15;5.32;;;;;;;;;;5015668;28;20609;-88
2022/03/10 17:23:09;;;;;;;6.15;4.88;;;;;;;;;;5029005;28;20211;-88
2022/03/10 17:25:37;;;;;;;9.57;5.32;;;;;;;;;;5023256;28;20231;-88
2022/03/10 17:28:04;;;;;;;9.63;5.45;;;;;;;;;;5012653;28;20214;-87
2022/03/10 17:30:31;;;;;;;9.00;5.30;;;;;;;;;;5012029;28;20238;-87
2022/03/10 17:32:58;;;;;;;8.00;5.40;;;;;;;;;;5012456;28;20261;-87
2022/03/10 17:35:27;;;;;;;8.30;5.43;;;;;;;;;;5012257;28;20246;-87
2022/03/10 17:37:54;;;;;;;9.43;5.57;;;;;;;;;;5016225;28;20207;-87
2022/03/10 17:40:21;;;;;;;7.55;5.72;;;;;;;;;;5029129;28;20317;-87
2022/03/10 17:42:48;;;;;;;7.78;5.63;;;;;;;;;;5032125;28;20211;-85
2022/03/10 17:45:15;;;;;;;8.20;5.50;;;;;;;;;;5032224;28;20249;-86
2022/03/10 17:47:45;;;;;;;8.20;5.75;;;;;;;;;;5033888;28;20234;-87
2022/03/10 17:50:14;;;;;;;9.27;5.43;;;;;;;;;;5032058;28;20731;-86
2022/03/10 17:52:43;;;;;;;9.25;6.22;;;;;;;;;;5034697;28;20244;-87
2022/03/10 17:55:12;;;;;;;9.67;5.70;;;;;;;;;;5036819;28;20725;-88
2022/03/10 17:57:40;;;;;;;6.93;5.37;;;;;;;;;;5039067;28;20198;-87
2022/03/10 18:00:08;;;;;;;8.83;5.47;;;;;;;;;;5044553;28;20254;-87
2022/03/10 18:02:35;;;;;;;8.53;5.83;;;;;;;;;;5047491;28;20608;-87
2022/03/10 18:05:03;;;;;;;10.97;6.57;;;;;;;;;;5044086;28;20281;-88
2022/03/10 18:07:30;;;;;;;8.87;6.27;;;;;;;;;;5042036;28;20245;-88
2022/03/10 18:09:58;;;;;;;7.20;5.67;;;;;;;;;;5042567;28;20237;-88
2022/03/10 18:12:29;;;;;;;6.67;5.47;;;;;;;;;;5036535;28;20213;-88
2022/03/10 18:14:56;;;;;;;9.83;6.03;;;;;;;;;;5033753;28;20244;-87
2022/03/10 18:17:23;;;;;;;12.20;6.53;;;;;;;;;;5034361;28;20570;-89
2022/03/10 18:19:50;;;;;;;7.17;5.77;;;;;;;;;;5033932;28;20248;-87
2022/03/10 18:22:17;;;;;;;7.80;5.43;;;;;;;;;;5034132;28;20203;-85
2022/03/10 18:24:46;;;;;;;7.90;6.13;;;;;;;;;;5033593;28;20238;-87
2022/03/10 18:27:15;;;;;;;10.27;6.10;;;;;;;;;;5034226;28;20222;-86
2022/03/10 18:29:42;;;;;;;8.20;5.87;;;;;;;;;;5033442;28;20249;-86
2022/03/10 18:32:09;;;;;;;10.27;6.13;;;;;;;;;;5034055;28;20203;-88
2022/03/10 18:34:36;;;;;;;7.40;5.80;;;;;;;;;;5033345;28;20239;-87
2022/03/10 18:37:06;;;;;;;6.80;6.10;;;;;;;;;;5029916;28;20286;-87
2022/03/10 18:39:33;;;;;;;7.97;6.03;;;;;;;;;;5014144;28;20206;-87
2022/03/10 18:42:02;;;;;;;7.17;6.20;;;;;;;;;;5014323;28;20218;-88
2022/03/10 18:44:31;;;;;;;11.27;6.60;;;;;;;;;;5016963;28;20327;-87
2022/03/10 18:46:59;;;;;;;16.23;7.10;;;;;;;;;;5025788;28;20219;-87
2022/03/10 18:49:31;;;;;;;11.60;6.63;;;;;;;;;;5016601;28;20191;-85
2022/03/10 18:51:58;;;;;;;15.37;7.03;;;;;;;;;;5014275;28;20663;-86
2022/03/10 18:54:25;;;;;;;11.60;6.73;;;;;;;;;;5028424;28;20258;-84